sensor_id;sensor_type;location;lat;lon;timestamp;pressure;altitude;pressure_sealevel;temperature;humidity
6506;BME280;3286;49.858;8.768;2023-08-08T00:01:22;99210.44;;;17.56;47.34
6506;BME280;3286;49.858;8.768;2023-08-08T00:03:49;99211.38;;;17.42;47.57
6506;BME280;3286;49.858;8.768;2023-08-08T00:06:15;99209.81;;;17.26;48.12
6506;BME280;3286;49.858;8.768;2023-08-08T00:08:42;99211.94;;;17.37;47.75
6506;BME280;3286;49.858;8.768;2023-08-08T00:11:09;99222.75;;;17.92;46.76
6506;BME280;3286;49.858;8.768;2023-08-08T00:13:37;99219.09;;;17.08;48.69
6506;BME280;3286;49.858;8.768;2023-08-08T00:16:04;99218.06;;;17.31;48.08
6506;BME280;3286;49.858;8.768;2023-08-08T00:18:30;99220.38;;;16.90;49.17
6506;BME280;3286;49.858;8.768;2023-08-08T00:20:57;99214.13;;;17.27;48.23
6506;BME280;3286;49.858;8.768;2023-08-08T00:23:24;99207.53;;;17.22;48.41
6506;BME280;3286;49.858;8.768;2023-08-08T00:25:50;99210.63;;;17.55;47.68
6506;BME280;3286;49.858;8.768;2023-08-08T00:28:17;99211.59;;;17.47;47.79
6506;BME280;3286;49.858;8.768;2023-08-08T00:30:46;99208.44;;;17.72;47.32
6506;BME280;3286;49.858;8.768;2023-08-08T00:33:12;99209.94;;;17.46;47.84
6506;BME280;3286;49.858;8.768;2023-08-08T00:35:39;99200.53;;;17.50;47.93
6506;BME280;3286;49.858;8.768;2023-08-08T00:38:05;99200.31;;;17.87;47.11
6506;BME280;3286;49.858;8.768;2023-08-08T00:40:32;99203.25;;;17.28;48.68
6506;BME280;3286;49.858;8.768;2023-08-08T00:42:58;99204.88;;;17.29;48.56
6506;BME280;3286;49.858;8.768;2023-08-08T00:45:25;99204.50;;;16.82;49.69
6506;BME280;3286;49.858;8.768;2023-08-08T00:47:53;99201.13;;;16.95;49.29
6506;BME280;3286;49.858;8.768;2023-08-08T00:50:20;99199.22;;;16.67;50.04
6506;BME280;3286;49.858;8.768;2023-08-08T00:52:47;99191.78;;;17.06;49.36
6506;BME280;3286;49.858;8.768;2023-08-08T00:55:14;99199.47;;;17.44;48.25
6506;BME280;3286;49.858;8.768;2023-08-08T00:57:41;99198.16;;;17.62;47.88
6506;BME280;3286;49.858;8.768;2023-08-08T01:00:08;99194.78;;;17.53;48.00
6506;BME280;3286;49.858;8.768;2023-08-08T01:02:35;99201.19;;;17.02;49.36
6506;BME280;3286;49.858;8.768;2023-08-08T01:05:05;99194.84;;;17.03;49.85
6506;BME280;3286;49.858;8.768;2023-08-08T01:07:37;99200.19;;;17.31;49.00
6506;BME280;3286;49.858;8.768;2023-08-08T01:10:10;99195.09;;;17.36;48.92
6506;BME280;3286;49.858;8.768;2023-08-08T01:12:40;99189.34;;;17.11;49.25
6506;BME280;3286;49.858;8.768;2023-08-08T01:15:09;99190.88;;;17.49;48.53
6506;BME280;3286;49.858;8.768;2023-08-08T01:17:36;99194.59;;;17.26;49.23
6506;BME280;3286;49.858;8.768;2023-08-08T01:20:06;99181.16;;;17.76;47.97
6506;BME280;3286;49.858;8.768;2023-08-08T01:22:37;99188.78;;;17.44;48.87
6506;BME280;3286;49.858;8.768;2023-08-08T01:25:08;99191.16;;;17.61;48.51
6506;BME280;3286;49.858;8.768;2023-08-08T01:27:35;99186.72;;;17.40;48.57
6506;BME280;3286;49.858;8.768;2023-08-08T01:30:02;99186.38;;;17.56;48.39
6506;BME280;3286;49.858;8.768;2023-08-08T01:32:30;99184.75;;;17.55;48.23
6506;BME280;3286;49.858;8.768;2023-08-08T01:34:56;99183.47;;;17.51;48.52
6506;BME280;3286;49.858;8.768;2023-08-08T01:37:29;99182.63;;;17.15;49.11
6506;BME280;3286;49.858;8.768;2023-08-08T01:39:59;99171.78;;;17.52;48.46
6506;BME280;3286;49.858;8.768;2023-08-08T01:42:28;99178.94;;;17.45;48.95
6506;BME280;3286;49.858;8.768;2023-08-08T01:44:56;99171.50;;;17.40;48.81
6506;BME280;3286;49.858;8.768;2023-08-08T01:47:23;99179.94;;;17.79;47.64
6506;BME280;3286;49.858;8.768;2023-08-08T01:49:50;99174.72;;;17.29;48.87
6506;BME280;3286;49.858;8.768;2023-08-08T01:52:16;99181.69;;;17.30;49.43
6506;BME280;3286;49.858;8.768;2023-08-08T01:54:43;99173.16;;;17.41;48.59
6506;BME280;3286;49.858;8.768;2023-08-08T01:57:10;99175.00;;;17.76;48.37
6506;BME280;3286;49.858;8.768;2023-08-08T01:59:38;99177.63;;;17.34;49.02
6506;BME280;3286;49.858;8.768;2023-08-08T02:02:05;99180.53;;;16.89;50.09
6506;BME280;3286;49.858;8.768;2023-08-08T02:04:31;99170.75;;;16.74;50.99
6506;BME280;3286;49.858;8.768;2023-08-08T02:06:58;99185.94;;;17.17;49.53
6506;BME280;3286;49.858;8.768;2023-08-08T02:09:25;99185.59;;;16.84;50.78
6506;BME280;3286;49.858;8.768;2023-08-08T02:11:52;99178.44;;;17.06;50.15
6506;BME280;3286;49.858;8.768;2023-08-08T02:14:18;99177.31;;;17.50;48.97
6506;BME280;3286;49.858;8.768;2023-08-08T02:16:46;99178.13;;;16.72;50.79
6506;BME280;3286;49.858;8.768;2023-08-08T02:19:13;99171.06;;;17.08;50.09
6506;BME280;3286;49.858;8.768;2023-08-08T02:21:40;99170.88;;;17.38;48.99
6506;BME280;3286;49.858;8.768;2023-08-08T02:24:07;99173.13;;;16.84;50.89
6506;BME280;3286;49.858;8.768;2023-08-08T02:26:33;99166.72;;;17.00;50.35
6506;BME280;3286;49.858;8.768;2023-08-08T02:29:00;99168.75;;;16.98;50.36
6506;BME280;3286;49.858;8.768;2023-08-08T02:31:27;99168.66;;;16.91;50.58
6506;BME280;3286;49.858;8.768;2023-08-08T02:33:54;99170.72;;;17.18;49.71
6506;BME280;3286;49.858;8.768;2023-08-08T02:36:21;99171.13;;;16.93;50.49
6506;BME280;3286;49.858;8.768;2023-08-08T02:38:48;99175.16;;;16.82;50.63
6506;BME280;3286;49.858;8.768;2023-08-08T02:41:15;99170.63;;;17.04;50.28
6506;BME280;3286;49.858;8.768;2023-08-08T02:43:41;99168.88;;;16.68;51.07
6506;BME280;3286;49.858;8.768;2023-08-08T02:46:08;99156.97;;;16.71;51.09
6506;BME280;3286;49.858;8.768;2023-08-08T02:48:34;99155.44;;;16.61;51.30
6506;BME280;3286;49.858;8.768;2023-08-08T02:51:02;99164.97;;;16.49;51.89
6506;BME280;3286;49.858;8.768;2023-08-08T02:53:29;99159.19;;;16.24;52.45
6506;BME280;3286;49.858;8.768;2023-08-08T02:55:56;99160.22;;;16.66;51.37
6506;BME280;3286;49.858;8.768;2023-08-08T02:58:22;99153.56;;;16.55;51.64
6506;BME280;3286;49.858;8.768;2023-08-08T03:00:49;99158.06;;;16.33;52.23
6506;BME280;3286;49.858;8.768;2023-08-08T03:03:15;99160.91;;;16.31;52.13
6506;BME280;3286;49.858;8.768;2023-08-08T03:05:44;99160.25;;;16.29;52.16
6506;BME280;3286;49.858;8.768;2023-08-08T03:08:12;99156.56;;;16.08;52.45
6506;BME280;3286;49.858;8.768;2023-08-08T03:10:39;99156.34;;;16.10;52.68
6506;BME280;3286;49.858;8.768;2023-08-08T03:13:06;99163.94;;;16.28;52.49
6506;BME280;3286;49.858;8.768;2023-08-08T03:15:32;99166.69;;;16.35;52.25
6506;BME280;3286;49.858;8.768;2023-08-08T03:18:00;99159.53;;;16.35;52.09
6506;BME280;3286;49.858;8.768;2023-08-08T03:20:27;99157.25;;;16.32;52.02
6506;BME280;3286;49.858;8.768;2023-08-08T03:22:53;99162.66;;;16.24;52.27
6506;BME280;3286;49.858;8.768;2023-08-08T03:25:21;99165.28;;;15.87;53.23
6506;BME280;3286;49.858;8.768;2023-08-08T03:27:48;99167.44;;;16.29;52.06
6506;BME280;3286;49.858;8.768;2023-08-08T03:30:15;99177.03;;;16.08;52.63
6506;BME280;3286;49.858;8.768;2023-08-08T03:32:41;99175.00;;;16.10;52.90
6506;BME280;3286;49.858;8.768;2023-08-08T03:35:08;99173.28;;;15.87;53.71
6506;BME280;3286;49.858;8.768;2023-08-08T03:37:35;99180.66;;;15.70;53.70
6506;BME280;3286;49.858;8.768;2023-08-08T03:40:02;99175.59;;;15.75;53.89
6506;BME280;3286;49.858;8.768;2023-08-08T03:42:30;99176.34;;;15.69;54.00
6506;BME280;3286;49.858;8.768;2023-08-08T03:44:57;99171.06;;;16.06;52.75
6506;BME280;3286;49.858;8.768;2023-08-08T03:47:24;99165.16;;;16.26;52.47
6506;BME280;3286;49.858;8.768;2023-08-08T03:49:50;99170.78;;;15.86;53.25
6506;BME280;3286;49.858;8.768;2023-08-08T03:52:20;99178.69;;;16.09;52.86
6506;BME280;3286;49.858;8.768;2023-08-08T03:54:47;99180.38;;;15.80;53.47
6506;BME280;3286;49.858;8.768;2023-08-08T03:57:13;99178.44;;;16.04;52.99
6506;BME280;3286;49.858;8.768;2023-08-08T03:59:41;99177.81;;;15.72;53.90
6506;BME280;3286;49.858;8.768;2023-08-08T04:02:08;99178.53;;;15.65;53.81
6506;BME280;3286;49.858;8.768;2023-08-08T04:04:34;99172.13;;;15.75;54.17
6506;BME280;3286;49.858;8.768;2023-08-08T04:07:01;99183.47;;;15.24;54.96
6506;BME280;3286;49.858;8.768;2023-08-08T04:09:28;99179.72;;;15.33;55.40
6506;BME280;3286;49.858;8.768;2023-08-08T04:11:55;99178.41;;;15.14;55.70
6506;BME280;3286;49.858;8.768;2023-08-08T04:14:21;99179.81;;;15.40;54.87
6506;BME280;3286;49.858;8.768;2023-08-08T04:16:49;99175.56;;;15.45;54.85
6506;BME280;3286;49.858;8.768;2023-08-08T04:19:16;99175.31;;;15.55;54.45
6506;BME280;3286;49.858;8.768;2023-08-08T04:21:42;99175.53;;;15.00;56.34
6506;BME280;3286;49.858;8.768;2023-08-08T04:24:09;99181.34;;;15.19;55.92
6506;BME280;3286;49.858;8.768;2023-08-08T04:26:37;99180.41;;;15.12;55.97
6506;BME280;3286;49.858;8.768;2023-08-08T04:29:05;99177.53;;;15.52;54.82
6506;BME280;3286;49.858;8.768;2023-08-08T04:31:31;99180.00;;;15.68;54.38
6506;BME280;3286;49.858;8.768;2023-08-08T04:33:59;99181.75;;;15.46;54.98
6506;BME280;3286;49.858;8.768;2023-08-08T04:36:26;99185.56;;;15.13;55.75
6506;BME280;3286;49.858;8.768;2023-08-08T04:38:53;99180.56;;;15.33;55.09
6506;BME280;3286;49.858;8.768;2023-08-08T04:41:20;99185.94;;;15.10;55.94
6506;BME280;3286;49.858;8.768;2023-08-08T04:43:46;99179.16;;;15.38;55.19
6506;BME280;3286;49.858;8.768;2023-08-08T04:46:13;99177.63;;;15.05;56.46
6506;BME280;3286;49.858;8.768;2023-08-08T04:48:40;99172.47;;;15.42;55.74
6506;BME280;3286;49.858;8.768;2023-08-08T04:51:08;99171.81;;;15.85;54.61
6506;BME280;3286;49.858;8.768;2023-08-08T04:53:35;99172.53;;;15.48;55.39
6506;BME280;3286;49.858;8.768;2023-08-08T04:56:02;99173.59;;;15.09;56.95
6506;BME280;3286;49.858;8.768;2023-08-08T04:58:29;99177.59;;;15.28;56.18
6506;BME280;3286;49.858;8.768;2023-08-08T05:00:55;99180.56;;;15.33;56.00
6506;BME280;3286;49.858;8.768;2023-08-08T05:03:22;99174.91;;;15.28;56.50
6506;BME280;3286;49.858;8.768;2023-08-08T05:05:49;99170.25;;;15.75;55.39
6506;BME280;3286;49.858;8.768;2023-08-08T05:08:17;99173.13;;;15.74;55.48
6506;BME280;3286;49.858;8.768;2023-08-08T05:10:43;99162.00;;;15.85;54.77
6506;BME280;3286;49.858;8.768;2023-08-08T05:13:10;99171.09;;;15.76;55.56
6506;BME280;3286;49.858;8.768;2023-08-08T05:15:37;99172.75;;;15.62;56.12
6506;BME280;3286;49.858;8.768;2023-08-08T05:18:04;99157.22;;;15.81;55.52
6506;BME280;3286;49.858;8.768;2023-08-08T05:20:30;99168.72;;;15.96;54.87
6506;BME280;3286;49.858;8.768;2023-08-08T05:22:57;99163.00;;;15.84;55.81
6506;BME280;3286;49.858;8.768;2023-08-08T05:25:25;99156.19;;;16.12;54.54
6506;BME280;3286;49.858;8.768;2023-08-08T05:27:52;99159.38;;;16.22;54.54
6506;BME280;3286;49.858;8.768;2023-08-08T05:30:18;99161.28;;;15.91;55.67
6506;BME280;3286;49.858;8.768;2023-08-08T05:32:45;99158.69;;;15.98;55.24
6506;BME280;3286;49.858;8.768;2023-08-08T05:35:12;99154.88;;;16.44;54.55
6506;BME280;3286;49.858;8.768;2023-08-08T05:37:38;99152.91;;;16.31;54.80
6506;BME280;3286;49.858;8.768;2023-08-08T05:40:06;99155.69;;;16.66;54.33
6506;BME280;3286;49.858;8.768;2023-08-08T05:42:34;99155.00;;;16.14;54.58
6506;BME280;3286;49.858;8.768;2023-08-08T05:45:01;99153.09;;;16.51;54.50
6506;BME280;3286;49.858;8.768;2023-08-08T05:47:27;99157.44;;;16.53;54.19
6506;BME280;3286;49.858;8.768;2023-08-08T05:49:54;99153.88;;;16.67;53.61
6506;BME280;3286;49.858;8.768;2023-08-08T05:52:20;99160.59;;;16.63;53.68
6506;BME280;3286;49.858;8.768;2023-08-08T05:54:47;99151.78;;;16.41;54.11
6506;BME280;3286;49.858;8.768;2023-08-08T05:57:14;99148.16;;;16.48;53.88
6506;BME280;3286;49.858;8.768;2023-08-08T05:59:42;99152.84;;;16.46;54.12
6506;BME280;3286;49.858;8.768;2023-08-08T06:02:10;99163.69;;;16.66;53.56
6506;BME280;3286;49.858;8.768;2023-08-08T06:04:36;99155.25;;;16.85;53.04
6506;BME280;3286;49.858;8.768;2023-08-08T06:07:03;99157.31;;;17.11;52.56
6506;BME280;3286;49.858;8.768;2023-08-08T06:09:30;99159.06;;;15.95;55.03
6506;BME280;3286;49.858;8.768;2023-08-08T06:11:58;99168.66;;;16.11;54.75
6506;BME280;3286;49.858;8.768;2023-08-08T06:14:24;99178.00;;;16.80;52.50
6506;BME280;3286;49.858;8.768;2023-08-08T06:16:52;99175.59;;;17.36;51.45
6506;BME280;3286;49.858;8.768;2023-08-08T06:19:19;99179.41;;;16.76;52.44
6506;BME280;3286;49.858;8.768;2023-08-08T06:21:46;99177.19;;;16.80;52.87
6506;BME280;3286;49.858;8.768;2023-08-08T06:24:13;99171.50;;;17.40;51.40
6506;BME280;3286;49.858;8.768;2023-08-08T06:26:39;99165.00;;;17.21;50.25
6506;BME280;3286;49.858;8.768;2023-08-08T06:29:06;99179.25;;;16.85;53.14
6506;BME280;3286;49.858;8.768;2023-08-08T06:31:32;99180.41;;;16.97;52.10
6506;BME280;3286;49.858;8.768;2023-08-08T06:34:00;99169.19;;;17.65;50.70
6506;BME280;3286;49.858;8.768;2023-08-08T06:36:27;99168.47;;;17.85;50.15
6506;BME280;3286;49.858;8.768;2023-08-08T06:38:54;99172.78;;;18.42;49.01
6506;BME280;3286;49.858;8.768;2023-08-08T06:41:21;99167.94;;;18.03;48.84
6506;BME280;3286;49.858;8.768;2023-08-08T06:43:47;99172.09;;;17.35;50.44
6506;BME280;3286;49.858;8.768;2023-08-08T06:46:14;99173.53;;;17.09;51.62
6506;BME280;3286;49.858;8.768;2023-08-08T06:48:42;99178.50;;;17.13;50.91
6506;BME280;3286;49.858;8.768;2023-08-08T06:51:11;99163.41;;;17.62;50.05
6506;BME280;3286;49.858;8.768;2023-08-08T06:53:38;99168.59;;;16.41;52.45
6506;BME280;3286;49.858;8.768;2023-08-08T06:56:04;99155.41;;;17.33;50.57
6506;BME280;3286;49.858;8.768;2023-08-08T06:58:31;99164.66;;;16.15;53.57
6506;BME280;3286;49.858;8.768;2023-08-08T07:00:57;99161.09;;;16.73;52.10
6506;BME280;3286;49.858;8.768;2023-08-08T07:03:24;99152.97;;;17.67;49.36
6506;BME280;3286;49.858;8.768;2023-08-08T07:05:51;99155.81;;;17.02;50.54
6506;BME280;3286;49.858;8.768;2023-08-08T07:08:19;99169.59;;;16.40;53.38
6506;BME280;3286;49.858;8.768;2023-08-08T07:10:47;99160.97;;;17.03;51.44
6506;BME280;3286;49.858;8.768;2023-08-08T07:13:13;99166.84;;;17.98;49.37
6506;BME280;3286;49.858;8.768;2023-08-08T07:15:40;99167.19;;;17.39;49.26
6506;BME280;3286;49.858;8.768;2023-08-08T07:18:07;99157.91;;;17.70;49.43
6506;BME280;3286;49.858;8.768;2023-08-08T07:20:34;99154.16;;;17.64;48.81
6506;BME280;3286;49.858;8.768;2023-08-08T07:23:01;99155.22;;;18.05;47.58
6506;BME280;3286;49.858;8.768;2023-08-08T07:25:29;99160.63;;;18.26;47.22
6506;BME280;3286;49.858;8.768;2023-08-08T07:27:56;99154.78;;;18.02;47.13
6506;BME280;3286;49.858;8.768;2023-08-08T07:30:22;99145.84;;;18.36;46.81
6506;BME280;3286;49.858;8.768;2023-08-08T07:32:51;99153.59;;;18.18;46.25
6506;BME280;3286;49.858;8.768;2023-08-08T07:35:18;99160.50;;;17.21;47.11
6506;BME280;3286;49.858;8.768;2023-08-08T07:37:45;99160.31;;;16.73;50.15
6506;BME280;3286;49.858;8.768;2023-08-08T07:40:14;99171.59;;;16.75;49.36
6506;BME280;3286;49.858;8.768;2023-08-08T07:42:44;99150.75;;;17.42;49.04
6506;BME280;3286;49.858;8.768;2023-08-08T07:45:11;99157.47;;;17.31;48.35
6506;BME280;3286;49.858;8.768;2023-08-08T07:47:37;99146.78;;;18.15;47.53
6506;BME280;3286;49.858;8.768;2023-08-08T07:50:05;99150.78;;;17.84;47.25
6506;BME280;3286;49.858;8.768;2023-08-08T07:52:33;99148.25;;;17.69;46.83
6506;BME280;3286;49.858;8.768;2023-08-08T07:55:00;99151.38;;;18.35;45.96
6506;BME280;3286;49.858;8.768;2023-08-08T07:57:27;99163.25;;;18.19;47.11
6506;BME280;3286;49.858;8.768;2023-08-08T07:59:55;99152.25;;;18.82;45.06
6506;BME280;3286;49.858;8.768;2023-08-08T08:02:22;99150.09;;;18.24;45.45
6506;BME280;3286;49.858;8.768;2023-08-08T08:04:48;99156.34;;;19.39;44.13
6506;BME280;3286;49.858;8.768;2023-08-08T08:07:15;99150.81;;;19.34;43.53
6506;BME280;3286;49.858;8.768;2023-08-08T08:09:42;99158.03;;;18.86;44.55
6506;BME280;3286;49.858;8.768;2023-08-08T08:12:09;99152.91;;;19.18;44.18
6506;BME280;3286;49.858;8.768;2023-08-08T08:14:35;99145.91;;;19.96;43.74
6506;BME280;3286;49.858;8.768;2023-08-08T08:17:03;99147.00;;;20.21;42.89
6506;BME280;3286;49.858;8.768;2023-08-08T08:19:30;99150.13;;;19.59;44.05
6506;BME280;3286;49.858;8.768;2023-08-08T08:21:57;99152.34;;;19.82;44.05
6506;BME280;3286;49.858;8.768;2023-08-08T08:24:23;99155.19;;;17.28;49.31
6506;BME280;3286;49.858;8.768;2023-08-08T08:26:50;99151.19;;;18.43;47.01
6506;BME280;3286;49.858;8.768;2023-08-08T08:29:17;99156.97;;;19.41;45.13
6506;BME280;3286;49.858;8.768;2023-08-08T08:31:44;99144.88;;;19.91;44.34
6506;BME280;3286;49.858;8.768;2023-08-08T08:34:12;99146.25;;;19.41;45.57
6506;BME280;3286;49.858;8.768;2023-08-08T08:36:38;99143.03;;;19.84;44.48
6506;BME280;3286;49.858;8.768;2023-08-08T08:39:05;99136.91;;;20.16;43.76
6506;BME280;3286;49.858;8.768;2023-08-08T08:41:35;99130.81;;;20.02;44.53
6506;BME280;3286;49.858;8.768;2023-08-08T08:44:03;99130.50;;;20.17;43.38
6506;BME280;3286;49.858;8.768;2023-08-08T08:46:30;99142.28;;;20.16;43.31
6506;BME280;3286;49.858;8.768;2023-08-08T08:48:58;99133.75;;;20.33;43.41
6506;BME280;3286;49.858;8.768;2023-08-08T08:51:27;99125.69;;;20.65;42.33
6506;BME280;3286;49.858;8.768;2023-08-08T08:53:54;99127.34;;;20.34;42.67
6506;BME280;3286;49.858;8.768;2023-08-08T08:56:20;99128.31;;;20.39;41.76
6506;BME280;3286;49.858;8.768;2023-08-08T08:58:48;99128.38;;;21.16;40.47
6506;BME280;3286;49.858;8.768;2023-08-08T09:01:15;99147.47;;;18.31;45.52
6506;BME280;3286;49.858;8.768;2023-08-08T09:03:44;99136.41;;;18.54;44.14
6506;BME280;3286;49.858;8.768;2023-08-08T09:06:11;99138.28;;;19.01;43.06
6506;BME280;3286;49.858;8.768;2023-08-08T09:08:39;99139.28;;;18.59;43.43
6506;BME280;3286;49.858;8.768;2023-08-08T09:11:06;99134.78;;;19.00;43.41
6506;BME280;3286;49.858;8.768;2023-08-08T09:13:36;99134.31;;;18.36;44.20
6506;BME280;3286;49.858;8.768;2023-08-08T09:16:05;99132.72;;;19.88;41.14
6506;BME280;3286;49.858;8.768;2023-08-08T09:18:32;99135.31;;;18.28;43.72
6506;BME280;3286;49.858;8.768;2023-08-08T09:20:59;99121.72;;;19.51;41.70
6506;BME280;3286;49.858;8.768;2023-08-08T09:23:26;99129.28;;;19.67;40.98
6506;BME280;3286;49.858;8.768;2023-08-08T09:25:54;99125.81;;;19.53;41.49
6506;BME280;3286;49.858;8.768;2023-08-08T09:28:21;99120.53;;;20.63;39.88
6506;BME280;3286;49.858;8.768;2023-08-08T09:30:47;99116.78;;;20.96;39.50
6506;BME280;3286;49.858;8.768;2023-08-08T09:33:14;99124.28;;;18.85;43.31
6506;BME280;3286;49.858;8.768;2023-08-08T09:35:41;99106.47;;;20.04;42.09
6506;BME280;3286;49.858;8.768;2023-08-08T09:38:07;99114.88;;;20.72;39.60
6506;BME280;3286;49.858;8.768;2023-08-08T09:40:34;99104.63;;;21.31;39.49
6506;BME280;3286;49.858;8.768;2023-08-08T09:43:03;99105.09;;;21.28;38.76
6506;BME280;3286;49.858;8.768;2023-08-08T09:45:36;99101.69;;;22.07;37.58
6506;BME280;3286;49.858;8.768;2023-08-08T09:48:04;99108.88;;;21.57;37.71
6506;BME280;3286;49.858;8.768;2023-08-08T09:50:32;99101.16;;;21.68;37.49
6506;BME280;3286;49.858;8.768;2023-08-08T09:53:01;99104.81;;;22.35;37.65
6506;BME280;3286;49.858;8.768;2023-08-08T09:55:28;99099.63;;;20.97;38.31
6506;BME280;3286;49.858;8.768;2023-08-08T09:57:57;99092.47;;;21.84;37.45
6506;BME280;3286;49.858;8.768;2023-08-08T10:00:25;99090.47;;;22.22;37.50
6506;BME280;3286;49.858;8.768;2023-08-08T10:02:54;99104.53;;;21.94;37.00
6506;BME280;3286;49.858;8.768;2023-08-08T10:05:21;99092.31;;;21.61;38.13
6506;BME280;3286;49.858;8.768;2023-08-08T10:07:48;99097.06;;;22.26;37.67
6506;BME280;3286;49.858;8.768;2023-08-08T10:10:15;99099.03;;;21.51;37.67
6506;BME280;3286;49.858;8.768;2023-08-08T10:12:44;99087.56;;;22.54;37.13
6506;BME280;3286;49.858;8.768;2023-08-08T10:15:11;99085.47;;;22.92;35.93
6506;BME280;3286;49.858;8.768;2023-08-08T10:17:41;99095.28;;;22.51;35.89
6506;BME280;3286;49.858;8.768;2023-08-08T10:20:09;99087.78;;;21.42;38.05
6506;BME280;3286;49.858;8.768;2023-08-08T10:22:41;99092.28;;;21.98;38.02
6506;BME280;3286;49.858;8.768;2023-08-08T10:25:08;99089.00;;;21.65;40.04
6506;BME280;3286;49.858;8.768;2023-08-08T10:27:36;99090.72;;;21.22;37.53
6506;BME280;3286;49.858;8.768;2023-08-08T10:30:05;99095.38;;;21.27;37.03
6506;BME280;3286;49.858;8.768;2023-08-08T10:32:43;99094.59;;;21.64;36.67
6506;BME280;3286;49.858;8.768;2023-08-08T10:35:12;99101.75;;;20.31;38.19
6506;BME280;3286;49.858;8.768;2023-08-08T10:37:39;99094.38;;;21.96;35.55
6506;BME280;3286;49.858;8.768;2023-08-08T10:40:07;99089.81;;;21.28;36.88
6506;BME280;3286;49.858;8.768;2023-08-08T10:42:42;99085.44;;;20.90;37.84
6506;BME280;3286;49.858;8.768;2023-08-08T10:45:10;99079.06;;;21.96;35.80
6506;BME280;3286;49.858;8.768;2023-08-08T10:47:38;99084.00;;;22.42;37.56
6506;BME280;3286;49.858;8.768;2023-08-08T10:50:08;99082.06;;;22.61;35.60
6506;BME280;3286;49.858;8.768;2023-08-08T10:52:50;99085.25;;;22.70;35.32
6506;BME280;3286;49.858;8.768;2023-08-08T10:55:21;99077.25;;;23.35;36.24
6506;BME280;3286;49.858;8.768;2023-08-08T10:57:57;99078.31;;;22.98;33.87
6506;BME280;3286;49.858;8.768;2023-08-08T11:00:26;99078.66;;;22.54;35.79
6506;BME280;3286;49.858;8.768;2023-08-08T11:02:55;99086.19;;;20.47;37.84
6506;BME280;3286;49.858;8.768;2023-08-08T11:05:23;99070.00;;;21.60;36.80
6506;BME280;3286;49.858;8.768;2023-08-08T11:07:52;99074.69;;;22.80;34.05
6506;BME280;3286;49.858;8.768;2023-08-08T11:10:19;99065.53;;;22.03;35.92
6506;BME280;3286;49.858;8.768;2023-08-08T11:12:55;99061.25;;;22.80;35.71
6506;BME280;3286;49.858;8.768;2023-08-08T11:15:22;99072.69;;;22.64;35.28
6506;BME280;3286;49.858;8.768;2023-08-08T11:17:50;99075.75;;;22.67;36.27
6506;BME280;3286;49.858;8.768;2023-08-08T11:20:17;99068.44;;;22.44;35.19
6506;BME280;3286;49.858;8.768;2023-08-08T11:22:50;99080.06;;;21.83;37.09
6506;BME280;3286;49.858;8.768;2023-08-08T11:25:17;99063.97;;;22.38;37.09
6506;BME280;3286;49.858;8.768;2023-08-08T11:27:48;99068.97;;;22.65;35.92
6506;BME280;3286;49.858;8.768;2023-08-08T11:30:16;99072.09;;;22.07;36.15
6506;BME280;3286;49.858;8.768;2023-08-08T11:32:42;99076.19;;;22.52;35.74
6506;BME280;3286;49.858;8.768;2023-08-08T11:35:09;99078.22;;;21.84;35.80
6506;BME280;3286;49.858;8.768;2023-08-08T11:37:37;99069.72;;;22.29;36.59
6506;BME280;3286;49.858;8.768;2023-08-08T11:40:06;99074.66;;;23.16;34.89
6506;BME280;3286;49.858;8.768;2023-08-08T11:42:34;99065.69;;;22.51;34.60
6506;BME280;3286;49.858;8.768;2023-08-08T11:45:01;99073.16;;;22.72;34.96
6506;BME280;3286;49.858;8.768;2023-08-08T11:47:30;99068.06;;;21.98;36.37
6506;BME280;3286;49.858;8.768;2023-08-08T11:50:01;99053.16;;;21.53;36.61
6506;BME280;3286;49.858;8.768;2023-08-08T11:52:28;99058.44;;;21.78;35.96
6506;BME280;3286;49.858;8.768;2023-08-08T11:54:55;99062.00;;;21.53;37.36
6506;BME280;3286;49.858;8.768;2023-08-08T11:57:23;99060.69;;;21.63;37.54
6506;BME280;3286;49.858;8.768;2023-08-08T11:59:50;99057.78;;;21.64;36.76
6506;BME280;3286;49.858;8.768;2023-08-08T12:02:16;99048.88;;;22.25;36.65
6506;BME280;3286;49.858;8.768;2023-08-08T12:04:44;99050.09;;;23.00;34.97
6506;BME280;3286;49.858;8.768;2023-08-08T12:07:11;99047.06;;;23.91;35.51
6506;BME280;3286;49.858;8.768;2023-08-08T12:09:38;99057.22;;;24.29;32.93
6506;BME280;3286;49.858;8.768;2023-08-08T12:12:06;99058.78;;;22.67;34.97
6506;BME280;3286;49.858;8.768;2023-08-08T12:14:37;99060.78;;;22.83;36.99
6506;BME280;3286;49.858;8.768;2023-08-08T12:17:04;99057.59;;;22.86;34.79
6506;BME280;3286;49.858;8.768;2023-08-08T12:19:31;99039.88;;;23.96;33.89
6506;BME280;3286;49.858;8.768;2023-08-08T12:21:58;99055.88;;;22.26;36.45
6506;BME280;3286;49.858;8.768;2023-08-08T12:24:24;99053.50;;;22.48;35.33
6506;BME280;3286;49.858;8.768;2023-08-08T12:26:51;99048.69;;;23.10;36.84
6506;BME280;3286;49.858;8.768;2023-08-08T12:29:18;99052.59;;;22.90;35.00
6506;BME280;3286;49.858;8.768;2023-08-08T12:31:46;99056.78;;;21.77;36.43
6506;BME280;3286;49.858;8.768;2023-08-08T12:34:12;99041.00;;;22.66;36.56
6506;BME280;3286;49.858;8.768;2023-08-08T12:36:39;99036.16;;;23.27;36.05
6506;BME280;3286;49.858;8.768;2023-08-08T12:39:06;99040.16;;;22.77;34.30
6506;BME280;3286;49.858;8.768;2023-08-08T12:41:32;99032.25;;;23.76;34.04
6506;BME280;3286;49.858;8.768;2023-08-08T12:43:59;99030.88;;;24.20;33.80
6506;BME280;3286;49.858;8.768;2023-08-08T12:46:25;99031.50;;;23.52;36.14
6506;BME280;3286;49.858;8.768;2023-08-08T12:48:54;99041.44;;;22.86;33.60
6506;BME280;3286;49.858;8.768;2023-08-08T12:51:20;99031.94;;;22.96;32.02
6506;BME280;3286;49.858;8.768;2023-08-08T12:53:47;99039.34;;;22.65;33.39
6506;BME280;3286;49.858;8.768;2023-08-08T12:56:14;99047.63;;;23.64;31.81
6506;BME280;3286;49.858;8.768;2023-08-08T12:58:40;99051.63;;;23.08;32.39
6506;BME280;3286;49.858;8.768;2023-08-08T13:01:07;99037.69;;;22.99;32.79
6506;BME280;3286;49.858;8.768;2023-08-08T13:03:34;99048.50;;;22.21;33.43
6506;BME280;3286;49.858;8.768;2023-08-08T13:06:02;99051.84;;;22.83;32.80
6506;BME280;3286;49.858;8.768;2023-08-08T13:08:29;99044.22;;;22.44;34.22
6506;BME280;3286;49.858;8.768;2023-08-08T13:10:55;99044.13;;;23.10;33.70
6506;BME280;3286;49.858;8.768;2023-08-08T13:13:22;99032.72;;;23.32;31.52
6506;BME280;3286;49.858;8.768;2023-08-08T13:15:51;99039.66;;;22.33;32.57
6506;BME280;3286;49.858;8.768;2023-08-08T13:18:18;99040.31;;;23.23;33.39
6506;BME280;3286;49.858;8.768;2023-08-08T13:20:44;99034.28;;;23.28;34.23
6506;BME280;3286;49.858;8.768;2023-08-08T13:23:12;99035.47;;;23.08;32.74